Time;durP1;ratioP1;P1;durP2;ratioP2;P2;SDS_P1;SDS_P2;PMS_P1;PMS_P2;Temp;Humidity;BMP_temperature;BMP_pressure;BME280_temperature;BME280_humidity;BME280_pressure;Samples;Min_cycle;Max_cycle;Signal;HPM_P1;HPM_P2
2022/01/07 00:00:34;;;;;;;2.42;1.13;;;20.80;47.40;;;;;;4974846;28;20054;-81
2022/01/07 00:03:00;;;;;;;2.28;0.70;;;20.80;47.40;;;;;;4973953;28;20050;-80
2022/01/07 00:05:26;;;;;;;2.22;0.75;;;20.80;47.50;;;;;;4974782;28;20058;-80
2022/01/07 00:07:51;;;;;;;2.08;0.60;;;21.30;47.70;;;;;;4974484;28;20069;-81
2022/01/07 00:10:18;;;;;;;2.38;0.70;;;20.70;47.40;;;;;;4973196;28;20129;-80
2022/01/07 00:12:43;;;;;;;2.22;0.68;;;20.80;47.50;;;;;;4974456;28;20050;-80
2022/01/07 00:15:09;;;;;;;2.35;0.95;;;20.70;47.40;;;;;;4974188;28;20056;-80
2022/01/07 00:17:35;;;;;;;2.78;0.70;;;20.70;47.40;;;;;;4989963;28;20058;-81
2022/01/07 00:20:00;;;;;;;3.00;0.90;;;20.70;47.40;;;;;;4973142;28;20046;-80
2022/01/07 00:22:26;;;;;;;2.28;0.70;;;20.60;47.40;;;;;;4974469;28;20153;-81
2022/01/07 00:24:51;;;;;;;2.25;0.70;;;20.70;47.40;;;;;;4973634;28;20490;-81
2022/01/07 00:27:17;;;;;;;2.15;0.70;;;20.60;47.40;;;;;;4974207;28;20134;-81
2022/01/07 00:29:42;;;;;;;2.25;0.80;;;20.60;47.40;;;;;;4973849;28;20050;-81
2022/01/07 00:32:08;;;;;;;3.40;0.70;;;20.60;47.40;;;;;;4973416;28;20603;-80
2022/01/07 00:34:34;;;;;;;2.38;0.70;;;20.60;47.40;;;;;;4974399;28;20470;-81
2022/01/07 00:36:59;;;;;;;2.40;0.60;;;20.60;47.50;;;;;;4973415;28;20046;-80
2022/01/07 00:39:25;;;;;;;3.47;0.82;;;20.50;47.40;;;;;;4974079;28;20483;-81
2022/01/07 00:41:50;;;;;;;2.42;0.77;;;20.50;47.40;;;;;;4973996;28;20105;-81
2022/01/07 00:44:16;;;;;;;3.65;0.93;;;20.50;47.40;;;;;;4973121;28;20049;-80
2022/01/07 00:46:41;;;;;;;2.15;0.70;;;20.60;47.50;;;;;;4979422;28;20054;-81
2022/01/07 00:49:07;;;;;;;2.78;0.73;;;20.50;47.50;;;;;;4993325;28;20038;-80
2022/01/07 00:51:32;;;;;;;2.60;0.77;;;21.10;47.80;;;;;;4992723;28;20105;-81
2022/01/07 00:53:58;;;;;;;2.35;0.77;;;20.50;47.50;;;;;;4977259;28;20057;-81
2022/01/07 00:56:23;;;;;;;3.05;0.70;;;20.40;47.50;;;;;;4993410;28;20195;-81
2022/01/07 00:58:49;;;;;;;2.58;0.55;;;20.40;47.50;;;;;;4992854;28;20050;-80
2022/01/07 01:01:14;;;;;;;2.45;0.80;;;20.40;47.50;;;;;;4993114;28;20529;-81
2022/01/07 01:03:40;;;;;;;2.83;0.68;;;20.50;47.50;;;;;;4993252;28;20042;-81
2022/01/07 01:06:06;;;;;;;3.25;0.70;;;20.40;47.50;;;;;;4992316;28;20478;-80
2022/01/07 01:08:31;;;;;;;1.42;0.50;;;20.50;47.50;;;;;;4992903;28;20132;-83
2022/01/07 01:10:57;;;;;;;2.85;0.70;;;20.40;47.60;;;;;;4992269;28;20049;-84
2022/01/07 01:13:22;;;;;;;2.28;0.60;;;20.40;47.50;;;;;;4992167;28;20054;-83
2022/01/07 01:15:48;;;;;;;2.03;0.60;;;20.40;47.60;;;;;;4992831;28;20060;-83
2022/01/07 01:18:14;;;;;;;2.47;0.60;;;20.30;47.50;;;;;;4981464;28;20050;-83
2022/01/07 01:20:39;;;;;;;2.35;0.73;;;20.30;47.50;;;;;;4991896;28;20045;-83
2022/01/07 01:23:05;;;;;;;2.42;0.70;;;20.40;47.60;;;;;;4992535;28;20137;-84
2022/01/07 01:25:31;;;;;;;1.58;0.60;;;20.30;47.50;;;;;;4992862;28;20458;-83
2022/01/07 01:27:56;;;;;;;1.77;0.60;;;20.30;47.60;;;;;;4991828;28;20041;-85
2022/01/07 01:30:26;;;;;;;2.28;0.80;;;20.30;47.60;;;;;;4992659;28;20149;-85
2022/01/07 01:32:53;;;;;;;2.55;0.85;;;20.30;47.60;;;;;;4992424;28;20501;-83
2022/01/07 01:35:18;;;;;;;2.13;0.70;;;20.30;47.60;;;;;;4992036;28;20058;-83
2022/01/07 01:37:44;;;;;;;2.40;0.70;;;20.20;47.60;;;;;;4992404;28;20041;-83
2022/01/07 01:40:10;;;;;;;2.30;0.70;;;20.20;47.50;;;;;;5010048;28;20639;-83
2022/01/07 01:42:35;;;;;;;1.85;0.70;;;20.20;47.60;;;;;;5008014;28;20049;-83
2022/01/07 01:45:01;;;;;;;2.40;0.90;;;20.20;47.60;;;;;;5009744;28;20052;-83
2022/01/07 01:47:27;;;;;;;2.78;0.65;;;20.20;47.60;;;;;;4991515;28;20050;-83
2022/01/07 01:49:52;;;;;;;2.03;0.60;;;20.20;47.60;;;;;;4992009;28;20493;-83
2022/01/07 01:52:18;;;;;;;1.20;0.45;;;21.30;48.20;;;;;;4992293;28;20068;-82
2022/01/07 01:54:43;;;;;;;2.25;0.60;;;20.20;47.70;;;;;;4975597;28;20057;-83
2022/01/07 01:57:10;;;;;;;1.65;0.47;;;20.20;47.60;;;;;;4992176;28;20058;-83
2022/01/07 01:59:36;;;;;;;2.45;0.77;;;20.10;47.60;;;;;;4992223;28;20058;-83
2022/01/07 02:02:01;;;;;;;1.83;0.60;;;20.10;47.60;;;;;;5009150;28;20058;-83
2022/01/07 02:04:28;;;;;;;2.63;0.50;;;20.10;47.60;;;;;;4991809;28;20058;-83
2022/01/07 02:06:54;;;;;;;3.33;0.60;;;20.10;47.70;;;;;;4981068;28;20062;-83
2022/01/07 02:09:25;;;;;;;1.33;0.45;;;20.10;47.80;;;;;;4991491;28;20054;-83
2022/01/07 02:11:50;;;;;;;1.85;0.50;;;20.10;47.80;;;;;;4976522;28;20064;-83
2022/01/07 02:14:16;;;;;;;2.20;0.70;;;20.00;47.70;;;;;;4971359;28;20058;-83
2022/01/07 02:16:41;;;;;;;2.10;0.68;;;20.10;47.80;;;;;;4990883;28;20559;-83
2022/01/07 02:19:07;;;;;;;1.95;0.70;;;20.00;47.70;;;;;;4991776;28;20184;-83
2022/01/07 02:21:36;;;;;;;1.95;0.60;;;20.00;47.70;;;;;;4991779;28;20057;-83
2022/01/07 02:24:02;;;;;;;2.40;0.80;;;20.00;47.70;;;;;;5007355;28;20172;-83
2022/01/07 02:26:28;;;;;;;1.30;0.60;;;20.00;47.70;;;;;;4991794;28;20058;-83
2022/01/07 02:28:53;;;;;;;1.58;0.70;;;20.00;47.70;;;;;;4959628;28;20057;-83
2022/01/07 02:31:19;;;;;;;2.30;0.60;;;20.00;47.70;;;;;;4988116;28;20049;-83
2022/01/07 02:33:45;;;;;;;2.80;0.68;;;20.00;47.70;;;;;;4991751;28;20161;-83
2022/01/07 02:36:10;;;;;;;1.77;0.70;;;20.00;47.70;;;;;;4991636;28;20460;-82
2022/01/07 02:38:36;;;;;;;2.08;0.60;;;19.90;47.70;;;;;;4991131;28;20090;-83
2022/01/07 02:41:02;;;;;;;2.55;0.75;;;19.90;47.70;;;;;;4991615;28;20069;-83
2022/01/07 02:43:27;;;;;;;1.67;0.50;;;19.90;47.70;;;;;;4993232;28;20061;-83
2022/01/07 02:45:53;;;;;;;2.78;0.80;;;19.90;47.70;;;;;;4995063;28;20088;-83
2022/01/07 02:48:18;;;;;;;1.15;0.50;;;19.90;47.70;;;;;;4995535;28;20038;-83
2022/01/07 02:50:44;;;;;;;1.65;0.60;;;19.90;47.70;;;;;;4994591;28;20057;-83
2022/01/07 02:53:10;;;;;;;2.05;0.80;;;19.90;47.70;;;;;;4995644;28;20060;-83
2022/01/07 02:55:37;;;;;;;1.50;0.57;;;19.90;47.70;;;;;;4995270;28;20061;-83
2022/01/07 02:58:02;;;;;;;1.88;0.60;;;19.90;47.70;;;;;;4994858;28;20057;-83
2022/01/07 03:00:28;;;;;;;1.85;0.60;;;19.90;47.70;;;;;;4995313;28;20061;-83
2022/01/07 03:02:54;;;;;;;1.67;0.60;;;19.90;47.70;;;;;;5012604;28;20417;-83
2022/01/07 03:05:20;;;;;;;2.38;0.70;;;19.90;47.70;;;;;;4994807;28;20119;-83
2022/01/07 03:07:48;;;;;;;2.20;0.60;;;19.80;47.60;;;;;;4995034;28;20401;-83
2022/01/07 03:10:15;;;;;;;1.77;0.80;;;19.80;47.60;;;;;;4994928;28;20145;-83
2022/01/07 03:12:43;;;;;;;1.42;0.60;;;19.80;47.60;;;;;;5010346;28;20171;-83
2022/01/07 03:15:09;;;;;;;1.45;0.60;;;19.80;47.60;;;;;;4979365;28;20064;-83
2022/01/07 03:17:37;;;;;;;1.90;0.60;;;19.80;47.60;;;;;;5011617;28;20046;-83
2022/01/07 03:20:04;;;;;;;3.47;0.70;;;19.80;47.60;;;;;;4994283;28;20066;-83
2022/01/07 03:22:30;;;;;;;1.95;0.70;;;19.80;47.60;;;;;;4994931;28;20050;-83
2022/01/07 03:24:55;;;;;;;2.33;0.70;;;19.80;47.60;;;;;;4994680;28;20049;-83
2022/01/07 03:27:21;;;;;;;1.50;0.80;;;19.80;47.60;;;;;;4994317;28;20557;-83
2022/01/07 03:29:46;;;;;;;1.77;0.50;;;19.70;47.60;;;;;;5011486;28;20387;-83
2022/01/07 03:32:12;;;;;;;1.50;0.60;;;19.70;47.60;;;;;;4994679;28;20045;-83
2022/01/07 03:34:37;;;;;;;2.00;0.60;;;19.70;47.60;;;;;;4983729;28;20062;-83
2022/01/07 03:37:03;;;;;;;1.15;0.60;;;19.70;47.60;;;;;;4994649;28;20544;-83
2022/01/07 03:39:29;;;;;;;1.85;0.65;;;19.70;47.60;;;;;;4994620;28;20080;-83
2022/01/07 03:41:54;;;;;;;2.45;0.70;;;19.70;47.60;;;;;;4994327;28;20046;-83
2022/01/07 03:44:20;;;;;;;1.63;0.60;;;19.70;47.60;;;;;;4994344;28;20508;-83
2022/01/07 03:46:45;;;;;;;1.55;0.60;;;19.70;47.60;;;;;;4994509;28;20445;-83
2022/01/07 03:49:11;;;;;;;2.00;0.60;;;19.70;47.60;;;;;;4993598;28;20046;-83
2022/01/07 03:51:37;;;;;;;2.30;0.50;;;19.60;47.60;;;;;;4994463;28;20140;-83
2022/01/07 03:54:02;;;;;;;1.25;0.50;;;19.60;47.60;;;;;;4993687;28;20058;-83
2022/01/07 03:56:28;;;;;;;2.08;0.60;;;19.60;47.60;;;;;;4994748;28;20201;-83
2022/01/07 03:58:53;;;;;;;1.50;0.50;;;19.60;47.60;;;;;;5012128;28;20557;-83
2022/01/07 04:01:19;;;;;;;1.38;0.40;;;19.60;47.60;;;;;;4993518;28;20402;-83
2022/01/07 04:03:44;;;;;;;1.45;0.57;;;19.60;47.60;;;;;;4994155;28;20079;-83
2022/01/07 04:06:10;;;;;;;1.48;0.50;;;19.60;47.70;;;;;;4994370;28;20056;-83
2022/01/07 04:08:35;;;;;;;2.03;0.60;;;19.60;47.70;;;;;;4993628;28;20059;-83
2022/01/07 04:11:01;;;;;;;2.20;0.70;;;19.60;47.70;;;;;;4994102;28;20038;-83
2022/01/07 04:13:27;;;;;;;1.77;0.70;;;19.60;47.70;;;;;;4994187;28;20046;-83
2022/01/07 04:15:52;;;;;;;1.17;0.50;;;19.60;47.70;;;;;;4993681;28;20087;-83
2022/01/07 04:18:18;;;;;;;1.88;0.60;;;19.60;47.70;;;;;;4993877;28;20057;-83
2022/01/07 04:20:43;;;;;;;1.88;0.70;;;19.50;47.70;;;;;;4993573;28;20417;-85
2022/01/07 04:23:09;;;;;;;1.88;0.60;;;19.50;47.70;;;;;;4993151;28;20050;-83
2022/01/07 04:25:34;;;;;;;1.27;0.60;;;19.50;47.70;;;;;;4993733;28;20099;-83
2022/01/07 04:28:04;;;;;;;1.30;0.50;;;19.50;47.70;;;;;;4993748;28;20045;-83
2022/01/07 04:30:38;;;;;;;2.55;0.52;;;19.50;47.80;;;;;;4993131;28;20064;-83
2022/01/07 04:33:05;;;;;;;1.45;0.55;;;19.50;47.70;;;;;;4994037;28;20053;-83
2022/01/07 04:35:31;;;;;;;1.15;0.50;;;19.50;47.80;;;;;;5011362;28;20040;-83
2022/01/07 04:37:57;;;;;;;2.20;0.80;;;19.50;47.80;;;;;;5009582;28;20054;-83
2022/01/07 04:40:23;;;;;;;1.63;0.60;;;19.10;47.60;;;;;;4977570;28;20061;-83
2022/01/07 04:42:48;;;;;;;1.15;0.40;;;19.50;47.80;;;;;;4993314;28;20060;-83
2022/01/07 04:45:14;;;;;;;1.85;0.60;;;19.50;47.80;;;;;;4992453;28;20046;-83
2022/01/07 04:47:40;;;;;;;1.92;0.50;;;19.40;47.80;;;;;;4993321;28;20054;-83
2022/01/07 04:50:13;;;;;;;1.05;0.45;;;19.40;47.80;;;;;;4993038;28;20093;-83
2022/01/07 04:52:40;;;;;;;1.83;0.70;;;19.40;47.80;;;;;;4993406;28;20050;-83
2022/01/07 04:55:07;;;;;;;1.50;0.60;;;19.40;47.80;;;;;;4992992;28;20061;-83
2022/01/07 04:57:32;;;;;;;1.60;0.50;;;19.40;47.80;;;;;;4992524;28;20596;-83
2022/01/07 04:59:58;;;;;;;2.45;0.55;;;19.40;47.80;;;;;;4993375;28;20085;-83
2022/01/07 05:02:23;;;;;;;1.15;0.50;;;19.40;47.80;;;;;;4993259;28;20045;-83
2022/01/07 05:04:49;;;;;;;2.38;0.60;;;19.40;47.80;;;;;;4992477;28;20438;-83
2022/01/07 05:07:16;;;;;;;1.23;0.50;;;19.40;47.80;;;;;;4992526;28;20104;-84
2022/01/07 05:09:41;;;;;;;1.75;0.77;;;19.40;47.80;;;;;;4992787;28;20525;-83
2022/01/07 05:12:07;;;;;;;0.80;0.47;;;19.40;47.80;;;;;;5008830;28;20053;-83
2022/01/07 05:14:33;;;;;;;1.77;0.55;;;19.30;47.80;;;;;;4978583;28;20073;-84
2022/01/07 05:16:58;;;;;;;1.83;0.40;;;19.30;47.80;;;;;;4973203;28;20491;-83
2022/01/07 05:19:24;;;;;;;1.08;0.40;;;19.80;48.10;;;;;;4989907;28;20128;-82
2022/01/07 05:21:49;;;;;;;1.52;0.50;;;19.30;47.80;;;;;;4971249;28;20054;-84
2022/01/07 05:24:15;;;;;;;1.80;0.50;;;19.30;47.80;;;;;;4973313;28;20053;-83
2022/01/07 05:26:41;;;;;;;1.55;0.52;;;19.30;47.80;;;;;;4990089;28;20522;-83
2022/01/07 05:29:06;;;;;;;1.02;0.50;;;19.30;47.80;;;;;;4973530;28;20046;-83
2022/01/07 05:31:32;;;;;;;1.27;0.52;;;19.30;47.80;;;;;;4973236;28;20156;-84
2022/01/07 05:33:57;;;;;;;0.98;0.50;;;19.30;47.80;;;;;;4972329;28;20046;-83
2022/01/07 05:36:23;;;;;;;1.70;0.60;;;19.30;47.90;;;;;;4972922;28;20054;-83
2022/01/07 05:38:49;;;;;;;1.45;0.50;;;19.30;47.90;;;;;;4972994;28;20050;-84
2022/01/07 05:41:14;;;;;;;1.25;0.40;;;19.30;47.90;;;;;;4972564;28;20057;-84
2022/01/07 05:43:40;;;;;;;1.50;0.52;;;19.30;47.90;;;;;;4972803;28;20104;-84
2022/01/07 05:46:08;;;;;;;1.40;0.47;;;19.20;47.80;;;;;;4972864;28;20038;-84
2022/01/07 05:48:33;;;;;;;1.70;0.40;;;19.30;47.90;;;;;;4972292;28;20500;-84
2022/01/07 05:50:59;;;;;;;1.25;0.50;;;19.20;47.90;;;;;;4972965;28;20058;-84
2022/01/07 05:53:24;;;;;;;1.95;0.50;;;19.20;47.80;;;;;;4973029;28;20057;-84
2022/01/07 05:55:50;;;;;;;1.67;0.50;;;19.20;47.90;;;;;;4972263;28;20058;-84
2022/01/07 05:58:15;;;;;;;2.38;0.60;;;19.20;47.90;;;;;;4972719;28;20590;-84
2022/01/07 06:00:41;;;;;;;2.00;0.40;;;20.00;48.30;;;;;;4972011;28;20069;-83
2022/01/07 06:03:06;;;;;;;1.42;0.60;;;19.20;47.90;;;;;;4972808;28;20046;-83
2022/01/07 06:05:32;;;;;;;2.33;0.40;;;19.20;47.90;;;;;;4972824;28;20154;-84
2022/01/07 06:07:58;;;;;;;1.33;0.50;;;20.00;48.30;;;;;;4989271;28;20108;-84
2022/01/07 06:10:23;;;;;;;1.42;0.50;;;19.20;48.60;;;;;;4990149;28;20058;-83
2022/01/07 06:12:49;;;;;;;1.10;0.40;;;19.20;47.90;;;;;;4972486;28;20470;-83
2022/01/07 06:15:14;;;;;;;2.08;0.60;;;19.10;47.90;;;;;;4953638;28;20171;-83
2022/01/07 06:17:40;;;;;;;1.92;0.70;;;19.10;47.90;;;;;;4972540;28;20113;-83
2022/01/07 06:20:06;;;;;;;1.23;0.43;;;20.00;48.30;;;;;;4989840;28;20057;-83
2022/01/07 06:22:31;;;;;;;0.93;0.50;;;18.40;47.50;;;;;;4971971;28;20489;-83
2022/01/07 06:24:57;;;;;;;2.25;0.70;;;19.10;47.90;;;;;;4972314;28;20050;-83
2022/01/07 06:27:22;;;;;;;0.80;0.40;;;19.10;47.90;;;;;;4972058;28;20073;-83
2022/01/07 06:29:48;;;;;;;0.85;0.40;;;19.10;47.90;;;;;;4970788;28;20050;-83
2022/01/07 06:32:14;;;;;;;1.70;0.40;;;19.10;47.90;;;;;;4982344;28;20138;-83
2022/01/07 06:34:39;;;;;;;0.60;0.30;;;20.30;48.50;;;;;;4972472;28;20061;-86
2022/01/07 06:37:05;;;;;;;1.00;0.30;;;19.10;48.00;;;;;;4971687;28;20042;-87
2022/01/07 06:39:32;;;;;;;1.13;0.40;;;19.10;47.90;;;;;;4971013;28;20047;-85
2022/01/07 06:41:58;;;;;;;0.60;0.30;;;19.10;47.90;;;;;;4971981;28;20058;-85
2022/01/07 06:44:24;;;;;;;1.73;0.50;;;19.00;47.90;;;;;;4970825;28;20133;-85
2022/01/07 06:46:50;;;;;;;0.60;0.32;;;19.00;47.90;;;;;;4972010;28;20062;-85
2022/01/07 06:49:15;;;;;;;1.20;0.40;;;19.00;47.90;;;;;;4971894;28;20042;-85
2022/01/07 06:51:42;;;;;;;1.10;0.50;;;19.00;47.90;;;;;;4993453;28;20058;-86
2022/01/07 06:54:10;;;;;;;3.25;0.60;;;19.00;47.90;;;;;;4991300;28;20037;-84
2022/01/07 06:56:39;;;;;;;0.88;0.47;;;19.00;47.90;;;;;;4991265;28;20062;-85
2022/01/07 06:59:05;;;;;;;1.13;0.43;;;19.00;47.90;;;;;;4990330;28;20444;-86
2022/01/07 07:01:30;;;;;;;0.57;0.40;;;19.00;47.90;;;;;;4991637;28;20141;-85
2022/01/07 07:03:56;;;;;;;0.90;0.40;;;19.00;47.90;;;;;;4992175;28;20045;-85
2022/01/07 07:06:21;;;;;;;1.40;0.57;;;19.00;47.90;;;;;;4991350;28;20044;-85
2022/01/07 07:08:47;;;;;;;0.88;0.40;;;19.00;47.90;;;;;;4990806;28;20049;-83
2022/01/07 07:11:12;;;;;;;1.33;0.50;;;19.00;47.90;;;;;;4975749;28;20058;-83
2022/01/07 07:13:38;;;;;;;0.63;0.30;;;19.00;47.90;;;;;;4975025;28;20137;-83
2022/01/07 07:16:04;;;;;;;1.05;0.43;;;19.00;47.90;;;;;;4991487;28;20077;-84
2022/01/07 07:18:29;;;;;;;1.83;0.30;;;19.00;47.90;;;;;;4990696;28;20494;-84
2022/01/07 07:20:55;;;;;;;0.73;0.40;;;19.00;47.90;;;;;;5008698;28;20393;-83
2022/01/07 07:23:20;;;;;;;1.13;0.30;;;18.90;47.90;;;;;;5009124;28;20129;-84
2022/01/07 07:25:46;;;;;;;0.57;0.30;;;18.90;47.90;;;;;;4990717;28;20406;-84
2022/01/07 07:28:11;;;;;;;3.20;0.52;;;18.90;47.90;;;;;;4991701;28;20113;-84
2022/01/07 07:30:40;;;;;;;1.65;0.47;;;18.90;47.90;;;;;;4994174;28;20057;-83
2022/01/07 07:38:34;;;;;;;0.88;0.30;;;19.00;48.00;;;;;;4995091;28;20053;-83
2022/01/07 07:40:59;;;;;;;1.15;0.35;;;19.00;48.00;;;;;;4996888;28;20046;-83
2022/01/07 07:43:25;;;;;;;0.50;0.30;;;19.00;48.00;;;;;;4995243;28;20049;-83
2022/01/07 07:45:51;;;;;;;1.63;0.52;;;19.00;48.00;;;;;;4994126;28;20046;-83
2022/01/07 07:48:16;;;;;;;0.88;0.30;;;19.10;48.10;;;;;;4994064;28;20598;-83
2022/01/07 07:50:42;;;;;;;0.70;0.30;;;19.00;48.10;;;;;;5010455;28;20053;-84
2022/01/07 07:53:07;;;;;;;0.88;0.38;;;19.00;48.10;;;;;;5011445;28;20168;-85
2022/01/07 07:55:33;;;;;;;1.10;0.40;;;19.00;48.10;;;;;;4993912;28;20050;-84
2022/01/07 07:57:58;;;;;;;0.60;0.20;;;19.00;48.10;;;;;;5010494;28;20445;-84
2022/01/07 08:00:24;;;;;;;2.25;0.40;;;19.00;48.10;;;;;;4993664;28;20088;-84
2022/01/07 08:02:49;;;;;;;2.30;0.63;;;19.00;48.80;;;;;;5010431;28;20054;-84
2022/01/07 08:05:15;;;;;;;1.10;0.30;;;19.00;48.10;;;;;;4994087;28;20100;-84
2022/01/07 08:07:40;;;;;;;1.52;0.30;;;19.00;48.10;;;;;;5009421;28;20057;-84
2022/01/07 08:10:07;;;;;;;1.13;0.30;;;19.00;48.10;;;;;;4994226;28;20057;-84
2022/01/07 08:18:01;;;;;;;1.17;0.30;;;19.00;48.10;;;;;;4972574;28;20053;-87
2022/01/07 08:20:27;;;;;;;1.27;0.40;;;19.10;48.20;;;;;;4981089;28;20056;-83
2022/01/07 08:22:52;;;;;;;0.68;0.30;;;19.10;48.30;;;;;;4980009;28;20052;-84
2022/01/07 08:25:18;;;;;;;0.50;0.20;;;19.10;48.30;;;;;;4974700;28;20108;-83
2022/01/07 08:27:43;;;;;;;0.40;0.28;;;19.10;48.30;;;;;;4995767;28;20409;-84
2022/01/07 08:30:20;;;;;;;7.05;0.57;;;19.10;48.20;;;;;;4996263;28;20049;-89
2022/01/07 08:35:29;;;;;;;1.40;0.50;;;19.20;48.30;;;;;;4993752;28;20051;-83
2022/01/07 08:37:55;;;;;;;3.97;0.47;;;19.30;48.40;;;;;;4949003;28;20411;-87
2022/01/07 08:40:20;;;;;;;2.33;0.50;;;19.30;48.10;;;;;;4949320;28;20771;-84
2022/01/07 08:42:46;;;;;;;1.98;0.57;;;19.30;48.00;;;;;;4952488;28;20704;-85
2022/01/07 08:45:11;;;;;;;4.18;0.63;;;19.30;47.90;;;;;;4971441;28;20495;-87
2022/01/07 08:47:37;;;;;;;6.43;0.88;;;19.20;47.90;;;;;;4970740;28;20455;-85
2022/01/07 08:50:03;;;;;;;1.92;0.57;;;19.80;48.30;;;;;;4954930;28;20054;-92
2022/01/07 08:52:29;;;;;;;3.08;0.70;;;19.20;47.90;;;;;;4975184;28;20057;-93
2022/01/07 08:54:55;;;;;;;2.08;0.70;;;19.20;48.00;;;;;;4996614;28;20088;-92
2022/01/07 08:57:20;;;;;;;2.53;0.52;;;19.20;47.90;;;;;;4996051;28;20053;-92
2022/01/07 08:59:47;;;;;;;1.58;0.50;;;19.20;47.90;;;;;;4997390;28;20052;-92
2022/01/07 09:02:12;;;;;;;1.50;0.43;;;19.20;47.90;;;;;;5000006;28;20080;-93
2022/01/07 09:04:38;;;;;;;2.75;0.73;;;19.20;47.90;;;;;;4997146;28;20077;-93
2022/01/07 09:07:04;;;;;;;2.13;0.60;;;20.30;48.50;;;;;;4997505;28;20060;-91
2022/01/07 09:09:29;;;;;;;1.45;0.40;;;19.20;47.90;;;;;;4997820;28;20080;-92
2022/01/07 09:11:55;;;;;;;2.38;0.60;;;19.20;47.90;;;;;;4997399;28;20050;-91
2022/01/07 09:14:20;;;;;;;1.27;0.38;;;19.20;47.90;;;;;;4997246;28;20030;-92
2022/01/07 09:16:46;;;;;;;1.42;0.40;;;19.70;48.20;;;;;;5003673;28;20041;-91
2022/01/07 09:19:11;;;;;;;2.83;0.50;;;19.20;47.90;;;;;;4998562;28;20046;-92
2022/01/07 09:21:37;;;;;;;1.90;0.55;;;19.30;48.00;;;;;;4995325;28;20132;-92
2022/01/07 09:24:03;;;;;;;2.33;0.50;;;19.20;47.90;;;;;;5013840;28;20155;-93
2022/01/07 09:26:28;;;;;;;2.17;0.40;;;19.20;47.90;;;;;;4996200;28;20129;-92
2022/01/07 09:28:54;;;;;;;2.05;0.55;;;19.20;47.90;;;;;;4996858;28;20050;-93
2022/01/07 09:31:19;;;;;;;1.50;0.45;;;19.30;47.90;;;;;;4996797;28;20049;-93
2022/01/07 09:33:45;;;;;;;5.88;0.52;;;19.30;47.90;;;;;;4996259;28;20037;-92
2022/01/07 09:36:11;;;;;;;2.70;0.50;;;19.30;47.90;;;;;;4992904;28;20046;-87
2022/01/07 09:38:36;;;;;;;1.73;0.30;;;19.30;47.90;;;;;;5004661;28;20040;-88
2022/01/07 09:41:02;;;;;;;1.67;0.40;;;19.30;48.00;;;;;;5001205;28;20029;-87
2022/01/07 09:43:27;;;;;;;2.90;0.45;;;19.30;48.10;;;;;;4998583;28;20072;-89
2022/01/07 09:45:56;;;;;;;1.83;0.50;;;19.30;48.10;;;;;;4991495;28;20085;-90
2022/01/07 09:48:21;;;;;;;3.25;0.47;;;19.40;48.20;;;;;;4993223;28;20585;-88
2022/01/07 09:50:47;;;;;;;2.42;0.40;;;19.40;48.10;;;;;;4993651;28;20053;-87
2022/01/07 09:53:13;;;;;;;1.13;0.30;;;19.50;48.10;;;;;;4995385;28;20042;-89
2022/01/07 09:55:39;;;;;;;0.68;0.28;;;19.50;48.10;;;;;;4995739;28;20054;-87
2022/01/07 09:58:05;;;;;;;2.72;0.57;;;19.70;48.20;;;;;;4992558;28;20076;-90
2022/01/07 10:00:40;;;;;;;1.83;0.57;;;19.60;48.20;;;;;;4991754;28;20041;-91
2022/01/07 10:03:07;;;;;;;1.25;0.35;;;19.60;48.10;;;;;;4978118;28;20533;-89
2022/01/07 10:05:39;;;;;;;1.58;0.40;;;19.60;48.10;;;;;;4994688;28;20713;-91
2022/01/07 10:08:28;;;;;;;1.52;0.35;;;19.60;48.00;;;;;;4999705;28;20046;-91
2022/01/07 10:11:11;;;;;;;0.85;0.30;;;19.70;48.10;;;;;;5008988;28;20093;-91
2022/01/07 10:13:37;;;;;;;1.58;0.40;;;19.70;48.10;;;;;;4994709;28;20117;-92
2022/01/07 10:16:20;;;;;;;1.50;0.32;;;19.70;48.00;;;;;;4996713;28;20212;-89
2022/01/07 10:18:47;;;;;;;1.23;0.40;;;19.80;48.10;;;;;;4996412;28;20042;-92
2022/01/07 10:21:13;;;;;;;0.60;0.30;;;19.80;48.00;;;;;;5009313;28;20103;-93
2022/01/07 10:23:38;;;;;;;1.42;0.30;;;19.80;48.00;;;;;;4999389;28;20413;-90
2022/01/07 10:26:11;;;;;;;1.02;0.30;;;19.80;48.00;;;;;;4991746;28;20066;-88
2022/01/07 10:28:37;;;;;;;0.63;0.22;;;19.80;48.00;;;;;;4993234;28;20549;-90
2022/01/07 10:31:03;;;;;;;0.80;0.30;;;20.20;48.20;;;;;;4991711;28;20821;-89
2022/01/07 10:33:38;;;;;;;1.10;0.40;;;19.90;48.10;;;;;;4991634;28;20053;-85
2022/01/07 10:36:07;;;;;;;2.80;0.70;;;19.90;48.20;;;;;;5006731;28;20042;-88
2022/01/07 10:38:34;;;;;;;2.75;0.50;;;19.90;47.70;;;;;;4991423;28;20482;-89
2022/01/07 10:41:00;;;;;;;2.63;0.80;;;19.90;47.70;;;;;;4989834;28;20070;-88
2022/01/07 10:43:35;;;;;;;3.25;0.68;;;19.80;47.60;;;;;;4990356;28;20125;-88
2022/01/07 10:46:20;;;;;;;2.83;0.68;;;19.80;47.60;;;;;;4965801;28;20061;-89
2022/01/07 10:48:53;;;;;;;2.88;0.68;;;19.70;47.50;;;;;;4975475;28;20092;-84
2022/01/07 10:51:32;;;;;;;4.97;0.60;;;19.60;47.50;;;;;;4977884;28;20064;-87
2022/01/07 10:53:59;;;;;;;3.47;0.70;;;19.60;47.80;;;;;;4995832;28;20706;-85
2022/01/07 10:56:37;;;;;;;2.25;0.80;;;19.60;48.00;;;;;;4996927;28;20046;-90
2022/01/07 10:59:07;;;;;;;2.85;0.70;;;19.60;48.00;;;;;;4988616;28;20084;-90
2022/01/07 11:01:37;;;;;;;3.85;0.77;;;19.60;48.00;;;;;;4991207;28;20054;-90
2022/01/07 11:04:05;;;;;;;3.22;0.57;;;19.60;48.00;;;;;;4979247;28;20046;-91
2022/01/07 11:06:31;;;;;;;2.90;0.63;;;19.50;48.00;;;;;;4995684;28;20736;-88
2022/01/07 11:08:57;;;;;;;3.22;0.73;;;19.50;48.00;;;;;;4995443;28;20057;-89
2022/01/07 11:11:24;;;;;;;3.42;0.70;;;19.50;48.00;;;;;;4993533;28;20042;-85
2022/01/07 11:13:49;;;;;;;3.65;0.70;;;19.50;48.00;;;;;;4998978;28;20045;-89
2022/01/07 11:16:15;;;;;;;1.63;0.65;;;19.50;48.10;;;;;;4996851;28;20038;-89
2022/01/07 11:18:41;;;;;;;2.10;0.50;;;19.50;48.20;;;;;;4993132;28;20085;-90
2022/01/07 11:21:07;;;;;;;1.10;0.40;;;19.50;48.10;;;;;;4978086;28;20046;-90
2022/01/07 11:23:33;;;;;;;3.78;0.45;;;19.60;48.20;;;;;;4995439;28;20104;-89
2022/01/07 11:26:03;;;;;;;2.40;0.50;;;19.80;48.30;;;;;;4995036;28;20064;-90
2022/01/07 11:28:29;;;;;;;2.35;0.60;;;19.60;48.10;;;;;;4994949;28;20061;-89
2022/01/07 11:31:04;;;;;;;0.73;0.32;;;19.60;48.10;;;;;;4995025;28;20049;-89
2022/01/07 11:33:30;;;;;;;2.05;0.60;;;19.60;48.70;;;;;;4994045;28;20038;-90
2022/01/07 11:35:56;;;;;;;1.08;0.50;;;19.70;48.10;;;;;;4997612;28;20038;-90
2022/01/07 11:38:42;;;;;;;2.17;0.43;;;19.70;48.10;;;;;;4977815;28;20402;-89
2022/01/07 11:41:12;;;;;;;1.23;0.50;;;19.70;48.10;;;;;;4994108;28;20050;-89
2022/01/07 11:43:46;;;;;;;1.63;0.30;;;19.70;48.10;;;;;;4994357;28;20089;-90
2022/01/07 11:46:22;;;;;;;1.63;0.47;;;19.70;48.00;;;;;;4994213;28;20041;-85
2022/01/07 11:48:48;;;;;;;2.65;0.50;;;19.70;48.00;;;;;;4991012;28;20060;-88
2022/01/07 11:51:15;;;;;;;2.22;0.50;;;19.70;47.90;;;;;;4798441;28;5093389;-87
2022/01/07 11:53:43;;;;;;;1.00;0.40;;;19.70;47.90;;;;;;4959044;28;20053;-86
2022/01/07 11:56:13;;;;;;;1.15;0.30;;;19.80;47.90;;;;;;4955337;28;20058;-86
2022/01/07 11:58:41;;;;;;;1.85;0.40;;;19.80;47.90;;;;;;4944401;28;20475;-87
2022/01/07 12:01:07;;;;;;;0.90;0.30;;;19.80;47.90;;;;;;4973932;28;20052;-89
2022/01/07 12:03:56;;;;;;;1.90;0.57;;;19.80;47.90;;;;;;4974372;28;20509;-89
2022/01/07 12:06:26;;;;;;;0.80;0.40;;;19.80;47.90;;;;;;4973085;28;20406;-86
2022/01/07 12:09:08;;;;;;;1.52;0.50;;;19.80;47.90;;;;;;4973796;28;20057;-86
2022/01/07 12:11:35;;;;;;;1.90;0.35;;;20.30;48.20;;;;;;4974618;28;20069;-87
2022/01/07 12:14:10;;;;;;;0.82;0.40;;;19.80;47.90;;;;;;4972660;28;20510;-88
2022/01/07 12:16:36;;;;;;;2.40;0.47;;;19.80;48.00;;;;;;4979606;28;20066;-91
2022/01/07 12:19:17;;;;;;;1.63;0.38;;;19.80;47.90;;;;;;4977638;28;20050;-92
2022/01/07 12:21:43;;;;;;;2.03;0.50;;;19.80;47.90;;;;;;4974486;28;20042;-92
2022/01/07 12:24:20;;;;;;;1.70;0.50;;;19.80;47.90;;;;;;4993093;28;20084;-90
2022/01/07 12:26:46;;;;;;;1.13;0.30;;;19.80;47.80;;;;;;4987235;28;20039;-90
2022/01/07 12:29:21;;;;;;;1.33;0.35;;;19.80;47.70;;;;;;4974523;28;20057;-88
2022/01/07 12:31:51;;;;;;;2.03;0.50;;;19.80;47.60;;;;;;4971165;28;20089;-88
2022/01/07 12:34:24;;;;;;;1.67;0.40;;;19.90;47.70;;;;;;4956075;28;20050;-90
2022/01/07 12:36:55;;;;;;;1.30;0.40;;;19.90;47.70;;;;;;4955820;28;20431;-90
2022/01/07 12:39:25;;;;;;;1.92;0.32;;;19.90;47.70;;;;;;4971150;28;20058;-90
2022/01/07 12:41:54;;;;;;;1.20;0.35;;;19.90;47.70;;;;;;4973621;28;20050;-90
2022/01/07 12:44:19;;;;;;;1.63;0.47;;;20.00;47.70;;;;;;4974097;28;20058;-91
2022/01/07 12:46:50;;;;;;;1.58;0.40;;;19.90;47.70;;;;;;4974443;28;20059;-89
2022/01/07 12:49:16;;;;;;;0.82;0.30;;;19.90;47.70;;;;;;4974349;28;20054;-91
2022/01/07 12:51:41;;;;;;;0.95;0.30;;;19.90;47.70;;;;;;4958210;28;20055;-90
2022/01/07 12:54:07;;;;;;;1.02;0.32;;;20.80;48.20;;;;;;4972683;28;20482;-93
2022/01/07 12:56:34;;;;;;;5.78;0.50;;;19.90;47.70;;;;;;4990011;28;20056;-85
2022/01/07 12:59:18;;;;;;;4.78;0.45;;;19.90;47.70;;;;;;5008168;28;20396;-85